Bluff Springs, Texas
Current Conditions -  °F | °C
As of 3:53 PM on Friday 24 Oct 2014 (Local Time) from KAUS Reporting Station
Scattered Clouds Scattered Clouds  
Wind Chill: 85°   Ceiling: Unl
Heat Index: 85°   Visibility: 10mi
Dew Point: 60°   Wind: 5mph
Humidity: 43%   Direction: NA
Pressure: 30.08"   Gusts: NA
Location:  30.1791°N, 97.7294°W
Report Text: KAUS 242053Z VRB04KT 10SM SCT055 SCT150 29/16 A3008 RMK AO2 SLP180 T02940156 56027
Loading
Personal Weather Stations






























Interactive Weather Map New forecast layout! Learn more

10-Day Weather Forecast

Advertisements
Track Severe Weather on mobile